Time;durP1;ratioP1;P1;durP2;ratioP2;P2;SDS_P1;SDS_P2;PMS_P1;PMS_P2;Temp;Humidity;BMP_temperature;BMP_pressure;BME280_temperature;BME280_humidity;BME280_pressure;Samples;Min_cycle;Max_cycle;Signal;HPM_P1;HPM_P2
2022/06/22 00:02:08;;;;;;;5.47;2.25;;;16.00;99.90;;;;;;5034744;28;20038;-69
2022/06/22 00:04:42;;;;;;;5.28;2.13;;;16.00;99.90;;;;;;5038247;28;20099;-71
2022/06/22 00:07:20;;;;;;;6.13;1.90;;;15.90;99.90;;;;;;5021395;28;20040;-71
2022/06/22 00:09:46;;;;;;;5.57;2.00;;;15.90;99.90;;;;;;5036871;28;20067;-69
2022/06/22 00:12:27;;;;;;;6.55;2.10;;;15.90;99.90;;;;;;5040455;28;20454;-71
2022/06/22 00:14:55;;;;;;;4.38;1.77;;;15.80;99.90;;;;;;5018592;28;20029;-71
2022/06/22 00:17:26;;;;;;;4.38;1.75;;;15.80;99.90;;;;;;5041137;28;20037;-70
2022/06/22 00:20:00;;;;;;;4.47;2.05;;;15.70;99.90;;;;;;5039342;28;20034;-71
2022/06/22 00:22:26;;;;;;;6.82;2.55;;;15.60;99.90;;;;;;5040120;28;20492;-71
2022/06/22 00:25:01;;;;;;;8.20;2.72;;;15.60;99.90;;;;;;5041273;28;20489;-70
2022/06/22 00:27:37;;;;;;;4.15;2.22;;;15.60;99.90;;;;;;5039472;28;20091;-71
2022/06/22 00:30:26;;;;;;;6.53;3.38;;;15.60;99.90;;;;;;5040330;28;20099;-69
2022/06/22 00:33:12;;;;;;;4.80;2.00;;;15.50;99.90;;;;;;5036510;28;20088;-69
2022/06/22 00:35:56;;;;;;;5.80;2.22;;;15.50;99.90;;;;;;5047254;28;20037;-70
2022/06/22 00:38:28;;;;;;;5.72;2.28;;;15.50;99.90;;;;;;5042995;28;20041;-70
2022/06/22 00:40:57;;;;;;;5.65;2.25;;;15.50;99.90;;;;;;5045560;28;20030;-69
2022/06/22 00:43:28;;;;;;;8.82;2.45;;;15.50;99.90;;;;;;5041759;28;20071;-71
2022/06/22 00:45:56;;;;;;;6.68;1.92;;;15.50;99.90;;;;;;5040521;28;20112;-71
2022/06/22 00:48:32;;;;;;;3.90;2.08;;;15.40;99.90;;;;;;5038621;28;20037;-70
2022/06/22 00:51:06;;;;;;;5.63;2.20;;;15.30;99.90;;;;;;5021651;28;20040;-70
2022/06/22 00:53:32;;;;;;;7.50;2.25;;;15.40;99.90;;;;;;5021895;28;20116;-69
2022/06/22 00:56:08;;;;;;;8.35;2.63;;;15.40;99.90;;;;;;5039296;28;20132;-69
2022/06/22 00:58:41;;;;;;;7.57;2.40;;;15.30;99.90;;;;;;5040351;28;20045;-71
2022/06/22 01:01:24;;;;;;;10.25;2.92;;;15.20;99.90;;;;;;5037939;28;20042;-71
2022/06/22 01:04:13;;;;;;;7.75;3.35;;;15.20;99.90;;;;;;5034921;28;20045;-71
2022/06/22 01:06:54;;;;;;;4.80;2.40;;;15.20;99.90;;;;;;5033153;28;20049;-70
2022/06/22 01:09:29;;;;;;;4.47;2.30;;;15.20;99.90;;;;;;5035943;28;20041;-71
2022/06/22 01:12:16;;;;;;;5.88;3.33;;;15.20;99.90;;;;;;5040939;28;20060;-72
2022/06/22 01:15:02;;;;;;;6.13;2.60;;;15.10;99.90;;;;;;5030954;28;20572;-71
2022/06/22 01:17:34;;;;;;;8.52;2.45;;;15.10;99.90;;;;;;5018966;28;20052;-71
2022/06/22 01:20:10;;;;;;;10.20;3.53;;;15.20;99.90;;;;;;5039738;28;20129;-72
2022/06/22 01:22:54;;;;;;;6.55;2.25;;;15.10;99.90;;;;;;5019546;28;20086;-71
2022/06/22 01:25:40;;;;;;;7.25;3.30;;;15.10;99.90;;;;;;5038786;28;20119;-71
2022/06/22 01:28:09;;;;;;;5.25;2.05;;;15.10;99.90;;;;;;5022129;28;20037;-72
2022/06/22 01:30:38;;;;;;;6.20;2.88;;;15.00;99.90;;;;;;5037481;28;20029;-69
2022/06/22 01:33:45;;;;;;;8.48;2.40;;;15.00;99.90;;;;;;5039731;28;20039;-69
2022/06/22 01:36:21;;;;;;;5.50;2.47;;;15.10;99.90;;;;;;5033240;28;20022;-70
2022/06/22 01:38:47;;;;;;;10.82;2.70;;;15.10;99.90;;;;;;5035261;28;20041;-72
2022/06/22 01:41:37;;;;;;;9.48;2.85;;;15.10;99.90;;;;;;5022265;28;20115;-72
2022/06/22 01:44:20;;;;;;;8.55;2.83;;;15.10;99.90;;;;;;5021385;28;20048;-72
2022/06/22 01:47:32;;;;;;;7.43;3.28;;;15.10;99.90;;;;;;5034292;28;20169;-72
2022/06/22 01:50:11;;;;;;;7.47;2.97;;;15.00;99.90;;;;;;5018871;28;20049;-71
2022/06/22 01:52:43;;;;;;;8.05;2.65;;;15.10;99.90;;;;;;5014318;28;20489;-70
2022/06/22 01:55:27;;;;;;;5.85;2.50;;;15.00;99.90;;;;;;5032891;28;20409;-71
2022/06/22 01:58:04;;;;;;;9.38;2.80;;;15.00;99.90;;;;;;5036877;28;20497;-72
2022/06/22 02:00:30;;;;;;;7.82;3.08;;;15.00;99.90;;;;;;5037434;28;20037;-68
2022/06/22 02:02:59;;;;;;;9.82;2.80;;;15.00;99.90;;;;;;5038991;28;20036;-71
2022/06/22 02:05:24;;;;;;;5.72;2.70;;;14.90;99.90;;;;;;5024670;28;20103;-72
2022/06/22 02:08:06;;;;;;;6.35;2.90;;;14.90;99.90;;;;;;5039143;28;20040;-71
2022/06/22 02:10:59;;;;;;;6.80;2.47;;;14.80;99.90;;;;;;5038269;28;20068;-70
2022/06/22 02:13:42;;;;;;;8.30;2.80;;;14.80;99.90;;;;;;5031502;28;20098;-71
2022/06/22 02:16:22;;;;;;;10.20;2.90;;;14.80;99.90;;;;;;5045241;28;20049;-71
2022/06/22 02:19:12;;;;;;;10.40;2.90;;;14.80;99.90;;;;;;5038778;28;20033;-70
2022/06/22 02:21:49;;;;;;;8.70;2.63;;;14.70;99.90;;;;;;5045101;28;20291;-71
2022/06/22 02:24:28;;;;;;;7.93;2.75;;;14.70;99.90;;;;;;5017846;28;20095;-71
2022/06/22 02:27:10;;;;;;;7.93;3.17;;;14.70;99.90;;;;;;5048200;28;20057;-72
2022/06/22 02:29:45;;;;;;;8.73;2.72;;;14.70;99.90;;;;;;5042461;28;20102;-70
2022/06/22 02:32:44;;;;;;;6.15;3.05;;;14.70;99.90;;;;;;5023683;28;20565;-70
2022/06/22 02:35:12;;;;;;;12.73;3.80;;;14.60;99.90;;;;;;4993238;28;20393;-71
2022/06/22 02:37:45;;;;;;;7.70;3.35;;;14.60;99.90;;;;;;5023730;28;20032;-71
2022/06/22 02:40:20;;;;;;;6.85;3.08;;;14.60;99.90;;;;;;5039893;28;20401;-68
2022/06/22 02:45:31;;;;;;;5.55;2.83;;;14.50;99.90;;;;;;5034836;28;20040;-72
2022/06/22 02:48:20;;;;;;;12.43;2.97;;;14.50;99.90;;;;;;5038917;28;20047;-71
2022/06/22 02:51:07;;;;;;;8.93;3.78;;;14.50;99.90;;;;;;5036544;28;20564;-71
2022/06/22 02:53:36;;;;;;;8.60;3.70;;;14.50;99.90;;;;;;5035101;28;20497;-72
2022/06/22 02:56:11;;;;;;;6.13;3.00;;;14.50;99.90;;;;;;5038920;28;20116;-70
2022/06/22 02:58:37;;;;;;;8.30;3.67;;;14.50;99.90;;;;;;5032243;28;20409;-72
2022/06/22 03:01:13;;;;;;;8.60;3.60;;;14.50;99.90;;;;;;5035214;28;20034;-71
2022/06/22 03:03:42;;;;;;;6.65;3.10;;;14.50;99.90;;;;;;5018730;28;20033;-71
2022/06/22 03:06:11;;;;;;;9.85;3.03;;;14.50;99.90;;;;;;5024825;28;20064;-72
2022/06/22 03:08:38;;;;;;;5.55;3.20;;;14.40;99.90;;;;;;5042898;28;20140;-70
2022/06/22 03:11:06;;;;;;;6.47;2.75;;;14.50;99.90;;;;;;5036157;28;20038;-70
2022/06/22 03:13:35;;;;;;;9.10;3.50;;;14.40;99.90;;;;;;5017323;28;20033;-72
2022/06/22 03:16:01;;;;;;;10.80;3.47;;;14.40;99.90;;;;;;5024753;28;20056;-71
2022/06/22 03:18:29;;;;;;;9.88;3.30;;;14.40;99.90;;;;;;5022919;28;20045;-71
2022/06/22 03:21:02;;;;;;;9.50;3.10;;;14.30;99.90;;;;;;5024982;28;20489;-72
2022/06/22 03:24:04;;;;;;;8.77;3.38;;;14.30;99.90;;;;;;5038856;28;20125;-71
2022/06/22 03:26:37;;;;;;;9.45;3.30;;;14.30;99.90;;;;;;5041505;28;20041;-69
2022/06/22 03:29:26;;;;;;;6.13;3.35;;;14.30;99.90;;;;;;5035812;28;20504;-71
2022/06/22 03:32:01;;;;;;;9.75;3.10;;;14.30;99.90;;;;;;5041116;28;20033;-69
2022/06/22 03:34:33;;;;;;;9.07;3.92;;;14.20;99.90;;;;;;5021296;28;20083;-73
2022/06/22 03:37:09;;;;;;;7.22;3.40;;;14.20;99.90;;;;;;5039305;28;20025;-71
2022/06/22 03:39:39;;;;;;;5.93;3.22;;;14.20;99.90;;;;;;5033425;28;20059;-72
2022/06/22 03:42:08;;;;;;;;;;;14.20;99.90;;;;;;5035256;28;20125;-71
2022/06/22 03:44:41;;;;;;;8.80;3.22;;;14.10;99.90;;;;;;5024247;28;19920;-71
2022/06/22 03:47:15;;;;;;;7.95;3.72;;;14.20;99.90;;;;;;5036357;28;20021;-68
2022/06/22 03:49:52;;;;;;;8.27;3.20;;;14.10;99.90;;;;;;5041622;28;20031;-71
2022/06/22 03:52:29;;;;;;;12.48;3.75;;;14.10;99.90;;;;;;5040178;28;20025;-70
2022/06/22 03:55:12;;;;;;;9.38;3.45;;;14.10;99.90;;;;;;5046541;28;20041;-71
2022/06/22 03:57:43;;;;;;;12.20;4.38;;;14.10;99.90;;;;;;5041820;28;20025;-69
2022/06/22 04:00:13;;;;;;;11.60;3.60;;;14.10;99.90;;;;;;5021751;28;20405;-68
2022/06/22 04:02:40;;;;;;;9.18;4.03;;;14.10;99.90;;;;;;5024180;28;20034;-69
2022/06/22 04:05:10;;;;;;;11.05;3.92;;;14.10;99.90;;;;;;5034047;28;20061;-69
2022/06/22 04:07:38;;;;;;;8.77;3.20;;;14.10;99.90;;;;;;5052009;28;20036;-71
2022/06/22 04:10:07;;;;;;;11.88;2.83;;;14.20;99.90;;;;;;5050916;28;20029;-69
2022/06/22 04:12:41;;;;;;;4.68;2.50;;;14.20;99.90;;;;;;5025901;28;20115;-71
2022/06/22 04:15:49;;;;;;;6.70;2.78;;;14.20;99.90;;;;;;5036361;28;20053;-69
2022/06/22 04:18:28;;;;;;;6.32;3.20;;;14.20;99.90;;;;;;5038736;28;20045;-72
2022/06/22 04:21:00;;;;;;;5.05;3.05;;;14.20;99.90;;;;;;5038483;28;20044;-71
2022/06/22 04:23:34;;;;;;;5.22;2.38;;;14.20;99.90;;;;;;5045327;28;20378;-71
2022/06/22 04:26:27;;;;;;;8.10;2.85;;;14.20;99.90;;;;;;5038708;28;20044;-70
2022/06/22 04:28:59;;;;;;;5.22;2.85;;;14.20;99.90;;;;;;5036227;28;20037;-69
2022/06/22 04:31:31;;;;;;;7.10;2.70;;;14.20;99.90;;;;;;5035301;28;20518;-72
2022/06/22 04:34:07;;;;;;;7.50;2.72;;;14.20;99.90;;;;;;5038100;28;20040;-72
2022/06/22 04:36:54;;;;;;;4.55;2.40;;;14.30;99.90;;;;;;5022518;28;20029;-71
2022/06/22 04:39:26;;;;;;;7.15;2.72;;;14.40;99.90;;;;;;5035783;28;20037;-71
2022/06/22 04:41:52;;;;;;;6.30;2.35;;;14.40;99.90;;;;;;5031386;28;20133;-71
2022/06/22 04:44:22;;;;;;;9.52;3.40;;;14.50;99.90;;;;;;5032571;28;20091;-71
2022/06/22 04:47:01;;;;;;;12.07;2.60;;;14.50;99.90;;;;;;5018461;28;20489;-70
2022/06/22 04:49:39;;;;;;;7.15;3.67;;;14.50;99.90;;;;;;5035586;28;20485;-70
2022/06/22 04:52:24;;;;;;;9.43;2.90;;;14.60;99.90;;;;;;5033477;28;20034;-69
2022/06/22 04:54:54;;;;;;;10.82;3.15;;;14.70;99.90;;;;;;5018434;28;20032;-70
2022/06/22 04:57:28;;;;;;;8.68;3.63;;;14.70;99.90;;;;;;5040666;28;20033;-69
2022/06/22 04:59:55;;;;;;;7.85;2.85;;;14.70;99.90;;;;;;5038176;28;20029;-69
2022/06/22 05:02:31;;;;;;;6.50;2.53;;;14.70;99.90;;;;;;5019790;28;20397;-72
2022/06/22 05:05:05;;;;;;;9.70;3.05;;;14.80;99.90;;;;;;5028276;28;20037;-72
2022/06/22 05:07:41;;;;;;;5.03;2.80;;;14.90;99.90;;;;;;5030117;28;20223;-71
2022/06/22 05:10:42;;;;;;;6.68;3.25;;;14.90;99.90;;;;;;5012618;28;20041;-71
2022/06/22 05:13:15;;;;;;;8.43;2.97;;;15.00;99.90;;;;;;5024303;28;20037;-72
2022/06/22 05:15:43;;;;;;;5.43;2.80;;;15.00;99.90;;;;;;5032597;28;20083;-71
2022/06/22 05:18:24;;;;;;;8.00;3.60;;;15.00;99.90;;;;;;5029931;28;20603;-71
2022/06/22 05:21:18;;;;;;;6.90;2.78;;;15.00;99.90;;;;;;5031431;28;20045;-69
2022/06/22 05:23:50;;;;;;;5.95;2.28;;;15.20;99.90;;;;;;5028142;28;20052;-72
2022/06/22 05:26:18;;;;;;;12.23;3.15;;;15.20;99.90;;;;;;5035475;28;20041;-72
2022/06/22 05:28:58;;;;;;;10.15;2.70;;;15.30;99.90;;;;;;5031120;28;20033;-72
2022/06/22 05:31:35;;;;;;;7.60;2.70;;;15.40;99.90;;;;;;5030049;28;20115;-71
2022/06/22 05:34:05;;;;;;;4.18;2.45;;;15.50;99.90;;;;;;5025199;28;20067;-73
2022/06/22 05:36:37;;;;;;;6.45;2.38;;;15.70;99.90;;;;;;5030378;28;20033;-72
2022/06/22 05:39:04;;;;;;;8.32;2.60;;;15.80;99.90;;;;;;5030349;28;20060;-72
2022/06/22 05:41:33;;;;;;;6.60;2.45;;;16.00;99.90;;;;;;5015229;28;20116;-72
2022/06/22 05:44:04;;;;;;;5.40;2.20;;;16.10;99.90;;;;;;5031630;28;20029;-71
2022/06/22 05:46:30;;;;;;;4.50;2.10;;;16.30;99.90;;;;;;5030570;28;20056;-72
2022/06/22 05:48:56;;;;;;;7.07;2.30;;;16.60;99.90;;;;;;5015458;28;20041;-70
2022/06/22 05:51:41;;;;;;;3.88;1.90;;;16.90;99.90;;;;;;5035798;28;20536;-69
2022/06/22 05:54:20;;;;;;;5.57;2.67;;;17.40;99.90;;;;;;5042477;28;20044;-71
2022/06/22 05:56:52;;;;;;;5.50;1.58;;;18.00;99.90;;;;;;5037691;28;20038;-72
2022/06/22 05:59:41;;;;;;;6.18;1.52;;;18.60;99.90;;;;;;5037888;28;20045;-72
2022/06/22 06:02:32;;;;;;;4.80;1.60;;;19.20;99.90;;;;;;5029402;28;20098;-70
2022/06/22 06:05:06;;;;;;;4.75;1.77;;;19.90;99.90;;;;;;5013700;28;20033;-71
2022/06/22 06:07:39;;;;;;;3.10;1.60;;;20.30;99.90;;;;;;5009056;28;20048;-72
2022/06/22 06:10:14;;;;;;;5.38;1.98;;;20.30;99.90;;;;;;5012065;28;20056;-71
2022/06/22 06:12:47;;;;;;;4.72;1.33;;;20.50;99.90;;;;;;5035736;28;20029;-70
2022/06/22 06:15:14;;;;;;;10.77;1.83;;;20.50;99.90;;;;;;5031521;28;20049;-72
2022/06/22 06:17:44;;;;;;;10.15;1.70;;;20.70;99.90;;;;;;5030303;28;20041;-72
2022/06/22 06:20:24;;;;;;;;;;;20.70;99.90;;;;;;5012066;28;20397;-70
2022/06/22 06:22:55;;;;;;;4.20;1.65;;;20.70;99.90;;;;;;5029372;28;19986;-72
2022/06/22 06:28:20;;;;;;;4.13;1.25;;;20.70;99.90;;;;;;5030339;28;20119;-69
2022/06/22 06:30:49;;;;;;;8.45;1.48;;;20.60;99.90;;;;;;5028160;28;20102;-69
2022/06/22 06:33:31;;;;;;;4.20;1.13;;;20.80;99.90;;;;;;5028233;28;20540;-69
2022/06/22 06:36:21;;;;;;;3.22;1.08;;;20.80;99.90;;;;;;5028239;28;20038;-66
2022/06/22 06:38:57;;;;;;;3.75;1.63;;;20.80;99.90;;;;;;5028523;28;20045;-69
2022/06/22 06:41:38;;;;;;;3.13;1.05;;;21.00;99.90;;;;;;5026210;28;20128;-69
2022/06/22 06:44:10;;;;;;;3.85;1.40;;;21.20;99.90;;;;;;5027228;28;20064;-69
2022/06/22 06:46:51;;;;;;;1.13;0.73;;;21.50;98.90;;;;;;5017684;28;20130;-68
2022/06/22 06:49:30;;;;;;;4.38;1.00;;;21.90;99.30;;;;;;5027506;28;20076;-69
2022/06/22 06:52:01;;;;;;;4.13;0.93;;;22.10;98.50;;;;;;5027694;28;20048;-69
2022/06/22 06:54:45;;;;;;;;;;;22.30;97.10;;;;;;5028558;28;20041;-68
2022/06/22 06:57:15;;;;;;;2.67;1.13;;;22.40;96.40;;;;;;5029649;28;19913;-67
2022/06/22 06:59:44;;;;;;;3.55;1.15;;;22.40;95.40;;;;;;5030889;28;20038;-67
2022/06/22 07:02:24;;;;;;;2.13;0.40;;;22.60;93.30;;;;;;5011322;28;20033;-70
2022/06/22 07:04:50;;;;;;;;;;;22.80;92.40;;;;;;5013286;28;20037;-69
2022/06/22 07:07:36;;;;;;;3.15;0.57;;;23.00;93.20;;;;;;5008411;28;19974;-72
2022/06/22 07:10:17;;;;;;;2.40;0.68;;;23.50;92.30;;;;;;5026028;28;20037;-71
2022/06/22 07:12:51;;;;;;;1.63;0.47;;;24.00;92.50;;;;;;5027331;28;20266;-72
2022/06/22 07:15:24;;;;;;;2.03;0.60;;;24.30;90.50;;;;;;5028739;28;20029;-70
2022/06/22 07:17:54;;;;;;;1.98;0.73;;;24.90;90.40;;;;;;5024940;28;20040;-71
2022/06/22 07:20:25;;;;;;;;;;;25.50;89.10;;;;;;5026576;28;21629;-68
2022/06/22 07:23:01;;;;;;;4.80;1.08;;;26.20;84.80;;;;;;5029352;28;19978;-70
2022/06/22 07:25:44;;;;;;;2.65;1.00;;;27.30;84.00;;;;;;5031063;28;20037;-70
2022/06/22 07:28:25;;;;;;;3.45;1.23;;;28.50;83.70;;;;;;5027073;28;20049;-70
2022/06/22 07:30:59;;;;;;;2.78;0.80;;;29.50;75.30;;;;;;5024227;28;20037;-70
2022/06/22 07:33:31;;;;;;;2.22;1.00;;;30.10;74.90;;;;;;5010783;28;20049;-71
2022/06/22 07:36:18;;;;;;;4.18;1.20;;;30.90;72.90;;;;;;5015862;28;20029;-71
2022/06/22 07:38:56;;;;;;;3.00;0.90;;;31.30;69.00;;;;;;5029702;28;20036;-69
2022/06/22 07:41:24;;;;;;;4.90;1.40;;;31.60;68.10;;;;;;5023710;28;20037;-71
2022/06/22 07:44:00;;;;;;;2.20;0.93;;;31.70;66.10;;;;;;5027750;28;20036;-71
2022/06/22 07:46:52;;;;;;;2.42;1.17;;;32.30;66.50;;;;;;5024997;28;20046;-71
2022/06/22 07:49:45;;;;;;;2.65;1.10;;;32.60;66.00;;;;;;5032670;28;20036;-70
2022/06/22 07:52:17;;;;;;;3.83;1.58;;;33.40;61.30;;;;;;5032133;28;20033;-71
2022/06/22 07:55:31;;;;;;;1.88;1.27;;;33.60;61.10;;;;;;5033331;28;20174;-69
2022/06/22 07:58:19;;;;;;;3.55;1.33;;;33.50;59.90;;;;;;4974035;28;20042;-71
2022/06/22 08:00:49;;;;;;;3.22;1.50;;;33.20;60.00;;;;;;5019897;28;20136;-70
2022/06/22 08:03:25;;;;;;;3.25;1.20;;;33.30;59.30;;;;;;5034420;28;20037;-69
2022/06/22 08:05:55;;;;;;;2.97;1.13;;;32.80;58.90;;;;;;5029716;28;20034;-71
2022/06/22 08:08:33;;;;;;;3.58;1.20;;;32.60;59.10;;;;;;5034313;28;20049;-70
2022/06/22 08:11:02;;;;;;;;;;;32.60;57.80;;;;;;5033335;28;20056;-70
2022/06/22 08:13:43;;;;;;;3.45;1.17;;;32.00;57.90;;;;;;5010413;28;19975;-69
2022/06/22 08:16:31;;;;;;;5.38;1.58;;;31.90;57.50;;;;;;5016514;28;20128;-69
2022/06/22 08:18:58;;;;;;;2.43;1.00;;;31.30;58.80;;;;;;5032283;28;20073;-71
2022/06/22 08:21:25;;;;;;;2.15;0.85;;;30.90;59.40;;;;;;5032317;28;20050;-71
2022/06/22 08:23:51;;;;;;;3.55;1.48;;;30.50;58.80;;;;;;5028546;28;20051;-72
2022/06/22 08:26:22;;;;;;;3.30;0.95;;;29.60;60.40;;;;;;5032793;28;20521;-71
2022/06/22 08:28:49;;;;;;;4.47;1.10;;;29.30;61.70;;;;;;5026552;28;20033;-71
2022/06/22 08:31:15;;;;;;;5.68;1.02;;;28.40;61.50;;;;;;5032942;28;20048;-69
2022/06/22 08:33:47;;;;;;;1.85;0.63;;;27.80;61.20;;;;;;5030111;28;20029;-71
2022/06/22 08:36:35;;;;;;;2.47;0.70;;;27.40;62.50;;;;;;5033592;28;20501;-71
2022/06/22 08:39:05;;;;;;;2.58;1.25;;;27.00;63.50;;;;;;5030436;28;20409;-70
2022/06/22 08:41:55;;;;;;;3.15;0.70;;;26.60;65.80;;;;;;5031785;28;20048;-70
2022/06/22 08:44:20;;;;;;;3.30;0.60;;;26.50;63.70;;;;;;5029446;28;20116;-71
2022/06/22 08:46:54;;;;;;;2.92;0.90;;;26.30;64.30;;;;;;5034865;28;20135;-69
2022/06/22 08:49:32;;;;;;;4.47;0.70;;;26.30;66.80;;;;;;5030495;28;20421;-71
2022/06/22 08:52:08;;;;;;;2.05;0.65;;;26.20;66.50;;;;;;5030953;28;20118;-71
2022/06/22 08:54:37;;;;;;;0.90;0.30;;;26.00;66.00;;;;;;5031229;28;20040;-70
2022/06/22 08:57:14;;;;;;;3.35;1.02;;;26.00;67.30;;;;;;5033717;28;20029;-70
2022/06/22 08:59:47;;;;;;;3.75;0.50;;;26.00;67.80;;;;;;5015537;28;20124;-71
2022/06/22 09:02:34;;;;;;;2.13;0.50;;;25.80;67.10;;;;;;5026260;28;20041;-71
2022/06/22 09:05:29;;;;;;;5.03;1.10;;;25.70;66.50;;;;;;5010202;28;20045;-71
2022/06/22 09:08:10;;;;;;;5.13;0.82;;;25.50;66.20;;;;;;5011270;28;20104;-71
2022/06/22 09:10:53;;;;;;;3.67;0.57;;;25.40;66.50;;;;;;5031870;28;20124;-68
2022/06/22 09:13:27;;;;;;;3.25;0.70;;;25.30;65.50;;;;;;5032177;28;20103;-70
2022/06/22 09:16:16;;;;;;;3.83;0.60;;;25.30;66.90;;;;;;5027484;28;20405;-70
2022/06/22 09:18:56;;;;;;;2.15;0.85;;;25.20;66.60;;;;;;5014472;28;20044;-71
2022/06/22 09:21:45;;;;;;;1.35;0.30;;;25.30;67.10;;;;;;5031158;28;20052;-70
2022/06/22 09:24:21;;;;;;;0.47;0.30;;;25.20;67.20;;;;;;4997295;28;20038;-71
2022/06/22 09:27:18;;;;;;;3.00;0.40;;;25.40;67.50;;;;;;5014120;28;20076;-69
2022/06/22 09:29:55;;;;;;;3.67;0.63;;;25.30;64.40;;;;;;5030559;28;20041;-70
2022/06/22 09:32:38;;;;;;;2.78;0.80;;;25.10;65.00;;;;;;5030198;28;20064;-69
2022/06/22 09:35:29;;;;;;;5.72;0.55;;;25.10;66.70;;;;;;5032637;28;20032;-69
2022/06/22 09:38:18;;;;;;;1.88;0.45;;;25.10;68.30;;;;;;5035790;28;20072;-69
2022/06/22 09:41:13;;;;;;;7.25;1.23;;;25.10;66.40;;;;;;5014216;28;20048;-70
2022/06/22 09:43:54;;;;;;;1.35;0.50;;;25.30;65.70;;;;;;5032885;28;20076;-70
2022/06/22 09:46:29;;;;;;;5.15;0.40;;;25.30;66.80;;;;;;5028817;28;20060;-69
2022/06/22 09:49:31;;;;;;;2.58;0.65;;;25.30;65.90;;;;;;5018732;28;20125;-69
2022/06/22 09:52:15;;;;;;;1.63;0.77;;;25.30;66.90;;;;;;5036044;28;20799;-69
2022/06/22 09:58:09;;;;;;;1.48;0.50;;;25.40;67.10;;;;;;5029738;28;20123;-69
2022/06/22 10:00:37;;;;;;;1.92;0.50;;;25.50;65.90;;;;;;5030820;28;20068;-67
2022/06/22 10:03:30;;;;;;;1.67;0.70;;;25.70;66.40;;;;;;5035303;28;20057;-70
2022/06/22 10:06:23;;;;;;;1.63;0.70;;;25.50;65.90;;;;;;5018362;28;20387;-70
2022/06/22 10:09:20;;;;;;;0.55;0.20;;;25.40;65.50;;;;;;5015154;28;20028;-68
2022/06/22 10:12:01;;;;;;;2.33;0.65;;;25.30;66.70;;;;;;5020470;28;20041;-68
2022/06/22 10:14:36;;;;;;;1.65;0.57;;;25.30;66.00;;;;;;5034022;28;20525;-70
2022/06/22 10:17:29;;;;;;;2.55;0.57;;;25.30;66.70;;;;;;5014729;28;20033;-68
2022/06/22 10:20:27;;;;;;;2.22;0.30;;;25.40;67.80;;;;;;5031675;28;20041;-70
2022/06/22 10:23:17;;;;;;;1.35;0.30;;;25.50;67.80;;;;;;5028842;28;20037;-70
2022/06/22 10:26:07;;;;;;;1.95;0.57;;;25.60;66.70;;;;;;5008211;28;20040;-70
2022/06/22 10:28:58;;;;;;;5.07;1.10;;;25.60;67.10;;;;;;5035461;28;20098;-68
2022/06/22 10:31:54;;;;;;;5.30;0.75;;;25.60;66.70;;;;;;5014114;28;20049;-69
2022/06/22 10:34:34;;;;;;;2.90;0.73;;;25.40;66.80;;;;;;5032709;28;20093;-70
2022/06/22 10:37:34;;;;;;;1.63;0.63;;;25.40;69.60;;;;;;5032817;28;20033;-69
2022/06/22 10:40:11;;;;;;;2.95;0.50;;;25.40;69.10;;;;;;4988190;28;20037;-69
2022/06/22 10:46:17;;;;;;;4.00;0.63;;;25.30;70.00;;;;;;5031047;28;20512;-69
2022/06/22 10:48:54;;;;;;;3.58;0.68;;;25.40;71.00;;;;;;5034420;28;20025;-70
2022/06/22 10:51:29;;;;;;;0.65;0.30;;;25.50;71.20;;;;;;5030672;28;20040;-69
2022/06/22 10:54:13;;;;;;;1.10;0.50;;;25.70;70.40;;;;;;5026109;28;20129;-69
2022/06/22 10:57:04;;;;;;;2.90;0.38;;;25.80;68.40;;;;;;5033841;28;20037;-69
2022/06/22 10:59:44;;;;;;;3.30;0.90;;;25.90;70.00;;;;;;5031473;28;20053;-71
2022/06/22 11:02:13;;;;;;;2.83;0.50;;;25.80;69.40;;;;;;5034099;28;20048;-69
2022/06/22 11:04:57;;;;;;;0.30;0.20;;;25.90;62.20;;;;;;5011749;28;20910;-69
2022/06/22 11:07:34;;;;;;;1.35;0.20;;;25.90;63.90;;;;;;5027753;28;20049;-68
2022/06/22 11:10:27;;;;;;;0.55;0.13;;;25.90;60.20;;;;;;5034104;28;20045;-66
2022/06/22 11:13:20;;;;;;;1.77;0.50;;;26.10;59.20;;;;;;5035497;28;20441;-67
2022/06/22 11:16:00;;;;;;;1.30;0.45;;;26.10;61.50;;;;;;5034164;28;20025;-70
2022/06/22 11:18:50;;;;;;;1.10;0.45;;;26.00;59.70;;;;;;5037678;28;20037;-70
2022/06/22 11:21:45;;;;;;;2.85;0.38;;;26.10;60.40;;;;;;5035521;28;20044;-70
2022/06/22 11:24:32;;;;;;;1.85;0.22;;;26.00;59.00;;;;;;5036115;28;20397;-71
2022/06/22 11:32:58;;;;;;;0.22;0.20;;;26.00;57.70;;;;;;5033438;28;20121;-68
2022/06/22 11:35:38;;;;;;;2.28;0.20;;;26.00;59.20;;;;;;5039699;28;20129;-67
2022/06/22 11:38:16;;;;;;;;;;;26.00;58.40;;;;;;5035444;28;20029;-67
2022/06/22 11:41:02;;;;;;;2.00;0.60;;;26.10;58.80;;;;;;5035561;28;19917;-68
2022/06/22 11:43:43;;;;;;;1.40;0.32;;;26.10;58.50;;;;;;5022956;28;20048;-68
2022/06/22 11:46:37;;;;;;;0.90;0.10;;;26.00;56.90;;;;;;5018134;28;20037;-67
2022/06/22 11:49:18;;;;;;;1.85;0.20;;;26.00;56.70;;;;;;5034953;28;20052;-70
2022/06/22 11:52:17;;;;;;;4.38;0.63;;;26.00;56.60;;;;;;5035409;28;20079;-70
2022/06/22 11:55:13;;;;;;;2.53;0.37;;;25.90;57.80;;;;;;5038096;28;20134;-69
2022/06/22 11:58:07;;;;;;;1.27;0.20;;;25.90;57.60;;;;;;5035389;28;20030;-70
2022/06/22 12:00:54;;;;;;;5.68;0.63;;;25.90;59.40;;;;;;5034608;28;20033;-69
2022/06/22 12:03:43;;;;;;;1.63;0.35;;;26.00;59.50;;;;;;5038527;28;20033;-67
2022/06/22 12:06:26;;;;;;;1.60;0.32;;;25.90;59.10;;;;;;5017274;28;20053;-70
2022/06/22 12:09:07;;;;;;;3.05;0.20;;;25.90;61.70;;;;;;5020206;28;20123;-69
2022/06/22 12:11:43;;;;;;;2.28;0.25;;;25.70;63.30;;;;;;5040473;28;20040;-69
2022/06/22 12:17:29;;;;;;;4.78;0.35;;;25.60;61.80;;;;;;5035619;28;20053;-68
2022/06/22 12:20:27;;;;;;;0.93;0.30;;;25.70;62.80;;;;;;5042171;28;20120;-69
2022/06/22 12:23:12;;;;;;;3.58;0.40;;;25.60;63.80;;;;;;5038042;28;20047;-69
2022/06/22 12:26:12;;;;;;;0.88;0.50;;;25.60;64.90;;;;;;5038859;28;20041;-69
2022/06/22 12:29:00;;;;;;;1.30;0.40;;;25.60;64.50;;;;;;5041649;28;20059;-69
2022/06/22 12:31:34;;;;;;;2.00;0.40;;;25.60;63.00;;;;;;5041021;28;20041;-69
2022/06/22 12:34:03;;;;;;;4.07;0.40;;;25.60;62.10;;;;;;5023651;28;20052;-70
2022/06/22 12:36:37;;;;;;;1.63;0.40;;;25.50;65.20;;;;;;5041160;28;20075;-69
2022/06/22 12:39:13;;;;;;;1.27;0.40;;;25.60;65.50;;;;;;5034700;28;20040;-69
2022/06/22 12:42:06;;;;;;;1.45;0.50;;;25.60;66.00;;;;;;5038793;28;20138;-69
2022/06/22 12:45:13;;;;;;;3.53;0.77;;;25.60;64.50;;;;;;5033649;28;20045;-69
2022/06/22 12:47:55;;;;;;;2.00;0.60;;;25.60;66.00;;;;;;5011888;28;20041;-69
2022/06/22 12:50:48;;;;;;;1.00;0.20;;;25.50;64.10;;;;;;5021130;28;20041;-67
2022/06/22 12:53:36;;;;;;;3.70;0.50;;;25.50;66.90;;;;;;5037634;28;20037;-69
2022/06/22 12:56:11;;;;;;;4.70;0.77;;;25.60;65.00;;;;;;5031599;28;20444;-70
2022/06/22 12:58:46;;;;;;;0.80;0.20;;;25.60;65.00;;;;;;5015056;28;20029;-67
2022/06/22 13:01:12;;;;;;;1.75;0.30;;;25.50;65.10;;;;;;5033409;28;20022;-69
2022/06/22 13:03:43;;;;;;;2.30;0.40;;;25.50;65.70;;;;;;5017195;28;20025;-70
2022/06/22 13:06:09;;;;;;;1.30;0.50;;;25.50;65.20;;;;;;5022124;28;20164;-72
2022/06/22 13:08:35;;;;;;;2.60;0.30;;;25.60;64.10;;;;;;5019333;28;20041;-70
2022/06/22 13:11:11;;;;;;;4.10;0.38;;;25.50;65.90;;;;;;5017091;28;20044;-68
2022/06/22 13:13:55;;;;;;;1.75;0.30;;;25.50;65.30;;;;;;5015502;28;20056;-67
2022/06/22 13:16:27;;;;;;;0.75;0.30;;;25.50;61.00;;;;;;5018800;28;20429;-67
2022/06/22 13:19:27;;;;;;;0.90;0.30;;;25.60;61.00;;;;;;5038956;28;20044;-68
2022/06/22 13:21:56;;;;;;;1.63;0.20;;;25.60;61.50;;;;;;5014523;28;20045;-69
2022/06/22 13:24:49;;;;;;;1.27;0.30;;;25.70;61.40;;;;;;5037021;28;20120;-67
2022/06/22 13:27:20;;;;;;;1.50;0.40;;;25.80;61.70;;;;;;5035282;28;20033;-68
2022/06/22 13:29:52;;;;;;;3.42;0.52;;;25.80;61.10;;;;;;5037372;28;20029;-67
2022/06/22 13:32:18;;;;;;;1.30;0.38;;;25.80;61.40;;;;;;5037600;28;20036;-68
2022/06/22 13:34:52;;;;;;;2.10;0.32;;;25.70;61.50;;;;;;5037431;28;20109;-69
2022/06/22 13:37:42;;;;;;;1.17;0.63;;;25.70;63.10;;;;;;5020479;28;20080;-69
2022/06/22 13:40:36;;;;;;;2.60;0.52;;;25.60;64.60;;;;;;5040330;28;20032;-67
2022/06/22 13:43:27;;;;;;;2.85;0.55;;;25.80;61.00;;;;;;5020660;28;20401;-68
2022/06/22 13:46:12;;;;;;;0.75;0.20;;;25.80;61.20;;;;;;5038242;28;20036;-68
2022/06/22 13:48:58;;;;;;;0.70;0.38;;;25.90;60.20;;;;;;5017704;28;20032;-67
2022/06/22 13:51:51;;;;;;;0.73;0.40;;;25.90;63.50;;;;;;5038625;28;20033;-68
2022/06/22 13:54:31;;;;;;;5.68;0.93;;;25.90;64.60;;;;;;5040667;28;20115;-67
2022/06/22 13:57:18;;;;;;;4.22;0.65;;;25.70;64.60;;;;;;5033115;28;20128;-68
2022/06/22 13:59:52;;;;;;;1.52;0.38;;;25.60;63.70;;;;;;5036555;28;20047;-69
2022/06/22 14:02:45;;;;;;;0.82;0.30;;;25.60;63.00;;;;;;5016433;28;20032;-68
2022/06/22 14:05:26;;;;;;;1.38;0.40;;;25.50;63.70;;;;;;5034840;28;20124;-68
2022/06/22 14:08:03;;;;;;;1.23;0.20;;;25.40;64.00;;;;;;5035696;28;20057;-68
2022/06/22 14:10:41;;;;;;;3.42;0.25;;;25.30;65.00;;;;;;5033113;28;20045;-69